createdAt,value
2019-04-27T00:00:41.069Z,11.35
2019-04-27T00:03:13.218Z,11.12
2019-04-27T00:05:45.983Z,12.10
2019-04-27T00:08:38.598Z,12.37
2019-04-27T00:11:10.674Z,11.45
2019-04-27T00:13:40.597Z,12.88
2019-04-27T00:16:11.319Z,15.48
2019-04-27T00:18:49.807Z,11.93
2019-04-27T00:21:20.443Z,11.33
2019-04-27T00:23:58.017Z,11.35
2019-04-27T00:26:26.618Z,12.40
2019-04-27T00:28:55.251Z,12.98
2019-04-27T00:31:23.990Z,13.55
2019-04-27T00:33:53.613Z,12.47
2019-04-27T00:36:35.081Z,12.43
2019-04-27T00:39:06.479Z,13.22
2019-04-27T00:41:35.116Z,13.13
2019-04-27T00:44:04.331Z,12.93
2019-04-27T00:46:33.137Z,11.28
2019-04-27T00:49:03.574Z,11.30
2019-04-27T00:51:33.283Z,12.10
2019-04-27T00:54:02.249Z,10.70
2019-04-27T00:56:38.347Z,14.20
2019-04-27T00:59:20.667Z,12.53
2019-04-27T01:02:07.534Z,12.05
2019-04-27T01:04:36.926Z,12.53
2019-04-27T01:07:06.473Z,11.70
2019-04-27T01:09:35.722Z,11.50
2019-04-27T01:12:04.741Z,11.88
2019-04-27T01:14:34.245Z,12.15
2019-04-27T01:17:03.066Z,12.50
2019-04-27T01:19:31.710Z,12.43
2019-04-27T01:22:00.326Z,12.10
2019-04-27T01:24:30.375Z,12.30
2019-04-27T01:27:03.710Z,12.88
2019-04-27T01:29:34.025Z,12.30
2019-04-27T01:32:03.117Z,12.58
2019-04-27T01:34:31.888Z,12.03
2019-04-27T01:37:00.517Z,12.18
2019-04-27T01:39:29.093Z,12.35
2019-04-27T01:41:59.070Z,12.00
2019-04-27T01:44:29.558Z,12.88
2019-04-27T01:46:59.772Z,13.35
2019-04-27T01:49:29.542Z,12.23
2019-04-27T01:51:59.422Z,12.80
2019-04-27T01:54:29.542Z,12.30
2019-04-27T01:57:00.701Z,13.50
2019-04-27T01:59:29.955Z,12.98
2019-04-27T02:02:06.681Z,11.75
2019-04-27T02:04:37.022Z,13.35
2019-04-27T02:07:09.085Z,13.40
2019-04-27T02:09:38.658Z,14.07
2019-04-27T02:12:09.244Z,14.60
2019-04-27T02:14:38.945Z,13.70
2019-04-27T02:17:09.718Z,13.43
2019-04-27T02:19:39.271Z,15.10
2019-04-27T02:22:08.674Z,13.55
2019-04-27T02:24:38.988Z,13.98
2019-04-27T02:27:08.947Z,15.28
2019-04-27T02:29:41.965Z,14.03
2019-04-27T02:35:00.144Z,13.78
2019-04-27T02:37:30.451Z,14.47
2019-04-27T02:40:00.154Z,13.88
2019-04-27T02:42:31.008Z,14.50
2019-04-27T02:44:59.914Z,14.65
2019-04-27T02:47:30.356Z,14.75
2019-04-27T02:50:00.629Z,16.65
2019-04-27T02:52:30.886Z,13.85
2019-04-27T02:54:59.579Z,14.33
2019-04-27T02:57:30.159Z,15.65
2019-04-27T02:59:59.991Z,15.63
2019-04-27T03:02:30.645Z,15.28
2019-04-27T03:05:00.669Z,14.95
2019-04-27T03:07:30.350Z,15.20
2019-04-27T03:10:01.641Z,14.13
2019-04-27T03:12:31.387Z,15.78
2019-04-27T03:15:01.779Z,15.68
2019-04-27T03:17:32.054Z,15.63
2019-04-27T03:20:11.414Z,15.95
2019-04-27T03:22:41.756Z,15.58
2019-04-27T03:25:15.345Z,14.98
2019-04-27T03:27:45.108Z,16.55
2019-04-27T03:30:15.666Z,16.12
2019-04-27T03:32:44.796Z,14.98
2019-04-27T03:35:14.003Z,15.00
2019-04-27T03:37:43.069Z,14.90
2019-04-27T03:40:11.852Z,15.85
2019-04-27T03:42:42.201Z,15.68
2019-04-27T03:45:11.152Z,16.70
2019-04-27T03:47:40.841Z,15.65
2019-04-27T03:50:12.278Z,15.88
2019-04-27T03:52:49.947Z,15.20
2019-04-27T03:55:39.761Z,16.90
2019-04-27T03:58:24.776Z,14.83
2019-04-27T04:00:54.626Z,15.70
2019-04-27T04:03:23.323Z,18.17
2019-04-27T04:05:52.263Z,16.37
2019-04-27T04:08:21.076Z,16.52
2019-04-27T04:10:53.898Z,16.48
2019-04-27T04:16:07.318Z,17.27
2019-04-27T04:18:53.851Z,15.72
2019-04-27T04:21:22.537Z,16.57
2019-04-27T04:23:51.211Z,15.58
2019-04-27T04:26:19.801Z,15.23
2019-04-27T04:28:50.049Z,17.12
2019-04-27T04:31:20.916Z,16.32
2019-04-27T04:33:49.360Z,15.75
2019-04-27T04:36:20.093Z,19.35
2019-04-27T04:38:50.470Z,17.87
2019-04-27T04:41:27.139Z,18.10
2019-04-27T04:44:13.623Z,17.55
2019-04-27T04:47:00.555Z,17.25
2019-04-27T04:49:29.741Z,16.35
2019-04-27T04:51:59.464Z,17.95
2019-04-27T04:54:30.047Z,16.57
2019-04-27T04:56:59.460Z,18.02
2019-04-27T04:59:29.121Z,17.65
2019-04-27T05:02:01.832Z,16.70
2019-04-27T05:04:29.153Z,17.70
2019-04-27T05:06:59.175Z,15.10
2019-04-27T05:09:29.598Z,16.67
2019-04-27T05:11:58.821Z,16.23
2019-04-27T05:14:28.868Z,16.90
2019-04-27T05:16:59.188Z,15.08
2019-04-27T05:19:28.939Z,14.55
2019-04-27T05:21:59.182Z,15.68
2019-04-27T05:24:29.270Z,15.40
2019-04-27T05:26:59.087Z,14.98
2019-04-27T05:29:29.282Z,16.17
2019-04-27T05:31:59.250Z,15.03
2019-04-27T05:34:29.435Z,17.48
2019-04-27T05:36:59.336Z,15.95
2019-04-27T05:39:29.943Z,13.58
2019-04-27T05:41:59.768Z,16.42
2019-04-27T05:44:39.728Z,14.78
2019-04-27T05:47:16.654Z,14.80
2019-04-27T05:49:45.392Z,15.05
2019-04-27T05:52:29.897Z,16.12
2019-04-27T05:54:59.352Z,14.78
2019-04-27T05:57:28.781Z,14.00
2019-04-27T06:00:01.027Z,14.78
2019-04-27T06:02:30.362Z,15.25
2019-04-27T06:04:59.997Z,16.27
2019-04-27T06:07:29.584Z,15.03
2019-04-27T06:09:59.863Z,14.70
2019-04-27T06:12:29.691Z,15.05
2019-04-27T06:14:59.975Z,15.30
2019-04-27T06:17:30.026Z,16.48
2019-04-27T06:19:59.711Z,15.75
2019-04-27T06:22:29.318Z,14.23
2019-04-27T06:25:00.132Z,15.53
2019-04-27T06:27:30.566Z,14.70
2019-04-27T06:29:59.534Z,14.53
2019-04-27T06:32:29.605Z,15.58
2019-04-27T06:34:59.217Z,16.45
2019-04-27T06:37:29.450Z,15.65
2019-04-27T06:39:59.631Z,15.60
2019-04-27T06:42:29.624Z,17.10
2019-04-27T06:44:59.874Z,15.32
2019-04-27T06:47:29.681Z,15.28
2019-04-27T06:49:58.855Z,14.47
2019-04-27T06:52:29.100Z,15.10
2019-04-27T06:54:57.793Z,14.78
2019-04-27T06:57:26.403Z,14.15
2019-04-27T06:59:55.074Z,13.50
2019-04-27T07:02:23.849Z,15.68
2019-04-27T07:04:53.477Z,16.48
2019-04-27T07:07:22.363Z,14.00
2019-04-27T07:09:51.033Z,11.28
2019-04-27T07:12:19.572Z,12.65
2019-04-27T07:14:54.337Z,12.60
2019-04-27T07:17:19.125Z,11.25
2019-04-27T07:19:49.647Z,11.18
2019-04-27T07:22:20.069Z,12.05
2019-04-27T07:24:49.154Z,14.28
2019-04-27T07:27:19.089Z,11.40
2019-04-27T07:29:49.514Z,12.20
2019-04-27T07:32:19.288Z,10.60
2019-04-27T07:34:49.637Z,12.07
2019-04-27T07:37:19.584Z,12.07
2019-04-27T07:39:49.203Z,11.30
2019-04-27T07:42:20.819Z,11.73
2019-04-27T07:45:02.008Z,11.78
2019-04-27T07:47:41.162Z,12.13
2019-04-27T07:50:10.477Z,13.28
2019-04-27T07:52:40.557Z,13.50
2019-04-27T07:55:09.564Z,13.20
2019-04-27T07:57:39.993Z,12.13
2019-04-27T08:00:10.328Z,14.33
2019-04-27T08:02:39.142Z,13.20
2019-04-27T08:05:09.346Z,12.47
2019-04-27T08:07:39.172Z,13.45
2019-04-27T08:10:09.719Z,12.50
2019-04-27T08:12:38.751Z,11.73
2019-04-27T08:15:08.931Z,11.33
2019-04-27T08:17:42.428Z,12.28
2019-04-27T08:20:09.267Z,11.75
2019-04-27T08:22:38.920Z,11.35
2019-04-27T08:25:09.577Z,10.53
2019-04-27T08:27:42.546Z,11.43
2019-04-27T08:30:13.305Z,10.23
2019-04-27T08:32:46.262Z,11.48
2019-04-27T08:35:15.176Z,11.57
2019-04-27T08:37:45.372Z,8.85
2019-04-27T08:40:14.583Z,9.30
2019-04-27T08:42:43.249Z,9.85
2019-04-27T08:45:11.979Z,9.50
2019-04-27T08:47:41.790Z,9.60
2019-04-27T08:50:10.810Z,10.23
2019-04-27T08:52:41.930Z,9.95
2019-04-27T08:55:11.668Z,9.98
2019-04-27T08:57:40.368Z,8.65
2019-04-27T09:00:09.629Z,8.88
2019-04-27T09:02:44.541Z,8.93
2019-04-27T09:05:09.615Z,10.82
2019-04-27T09:07:40.080Z,10.10
2019-04-27T09:10:10.867Z,8.98
2019-04-27T09:12:58.862Z,8.53
2019-04-27T09:15:29.438Z,8.20
2019-04-27T09:17:59.095Z,9.68
2019-04-27T09:20:32.188Z,8.90
2019-04-27T09:23:00.947Z,8.23
2019-04-27T09:25:29.699Z,9.18
2019-04-27T09:27:59.761Z,8.83
2019-04-27T09:30:29.824Z,8.18
2019-04-27T09:32:59.212Z,8.28
2019-04-27T09:35:28.412Z,7.47
2019-04-27T09:37:57.208Z,8.33
2019-04-27T09:40:26.743Z,7.97
2019-04-27T09:42:57.219Z,8.58
2019-04-27T09:45:27.123Z,8.75
2019-04-27T09:47:56.440Z,8.65
2019-04-27T09:50:28.003Z,8.38
2019-04-27T09:52:55.937Z,8.88
2019-04-27T09:55:26.341Z,9.48
2019-04-27T09:57:56.916Z,8.35
2019-04-27T10:00:27.785Z,9.37
2019-04-27T10:02:56.588Z,9.33
2019-04-27T10:05:26.345Z,8.88
2019-04-27T10:07:56.739Z,9.13
2019-04-27T10:10:26.790Z,10.50
2019-04-27T10:12:56.792Z,10.28
2019-04-27T10:15:26.648Z,9.55
2019-04-27T10:17:57.615Z,10.70
2019-04-27T10:20:26.232Z,9.43
2019-04-27T10:22:56.471Z,11.70
2019-04-27T10:25:26.886Z,8.68
2019-04-27T10:27:58.556Z,9.93
2019-04-27T10:30:27.766Z,9.13
2019-04-27T10:32:56.484Z,16.05
2019-04-27T10:35:26.009Z,9.73
2019-04-27T10:37:55.099Z,10.32
2019-04-27T10:40:24.194Z,10.08
2019-04-27T10:42:52.908Z,10.78
2019-04-27T10:45:21.634Z,12.20
2019-04-27T10:47:50.258Z,16.65
2019-04-27T10:50:19.081Z,12.82
2019-04-27T10:52:53.575Z,11.60
2019-04-27T10:55:18.159Z,14.95
2019-04-27T10:57:49.678Z,12.40
2019-04-27T11:00:20.281Z,11.65
2019-04-27T11:02:48.997Z,12.50
2019-04-27T11:05:25.685Z,12.65
2019-04-27T11:07:57.118Z,11.95
2019-04-27T11:10:26.063Z,11.18
2019-04-27T11:12:56.104Z,11.93
2019-04-27T11:15:26.337Z,11.22
2019-04-27T11:17:56.123Z,12.93
2019-04-27T11:20:27.521Z,12.07
2019-04-27T11:23:06.700Z,15.10
2019-04-27T11:25:26.401Z,14.50
2019-04-27T11:27:55.940Z,12.10
2019-04-27T11:30:25.874Z,13.78
2019-04-27T11:32:58.948Z,10.75
2019-04-27T11:35:26.714Z,13.85
2019-04-27T11:37:56.988Z,11.25
2019-04-27T11:40:26.451Z,12.63
2019-04-27T11:42:57.046Z,11.78
2019-04-27T11:45:26.480Z,11.28
2019-04-27T11:47:57.095Z,11.95
2019-04-27T11:50:26.294Z,11.75
2019-04-27T11:52:56.680Z,11.33
2019-04-27T11:55:27.334Z,11.33
2019-04-27T11:57:56.083Z,11.12
2019-04-27T12:00:27.529Z,12.35
2019-04-27T12:02:57.048Z,10.60
2019-04-27T12:05:26.136Z,12.00
2019-04-27T12:07:56.085Z,10.80
2019-04-27T12:10:26.274Z,11.27
2019-04-27T12:12:56.292Z,10.00
2019-04-27T12:15:26.313Z,13.65
2019-04-27T12:17:56.147Z,10.68
2019-04-27T12:20:25.801Z,9.93
2019-04-27T12:22:54.825Z,9.80
2019-04-27T12:25:23.535Z,10.43
2019-04-27T12:28:08.846Z,9.48
2019-04-27T12:30:44.941Z,10.82
2019-04-27T12:33:13.812Z,9.73
2019-04-27T12:35:42.541Z,9.68
2019-04-27T12:38:11.422Z,10.30
2019-04-27T12:40:40.148Z,11.10
2019-04-27T12:43:08.923Z,11.57
2019-04-27T12:45:40.993Z,10.30
2019-04-27T12:48:08.821Z,10.13
2019-04-27T12:50:37.792Z,10.15
2019-04-27T12:53:24.685Z,10.35
2019-04-27T12:56:20.454Z,10.23
2019-04-27T12:58:53.769Z,12.60
2019-04-27T13:01:25.854Z,12.43
2019-04-27T13:03:58.579Z,12.98
2019-04-27T14:23:28.497Z,10.70
2019-04-27T14:25:58.520Z,10.18
2019-04-27T14:28:28.970Z,10.50
2019-04-27T14:30:59.022Z,11.40
2019-04-27T14:33:28.401Z,11.65
2019-04-27T14:35:59.261Z,12.90
2019-04-27T14:38:27.726Z,10.72
2019-04-27T14:40:59.361Z,11.90
2019-04-27T14:43:28.622Z,18.82
2019-04-27T14:46:00.733Z,13.65
2019-04-27T14:48:35.363Z,10.28
2019-04-27T14:51:03.978Z,11.12
2019-04-27T14:53:34.622Z,11.40
2019-04-27T14:56:03.349Z,11.55
2019-04-27T14:58:32.042Z,12.78
2019-04-27T15:01:00.807Z,9.83
2019-04-27T15:03:29.475Z,9.68
2019-04-27T15:05:58.271Z,10.55
2019-04-27T15:08:27.058Z,10.58
2019-04-27T15:10:56.650Z,12.73
2019-04-27T15:13:25.490Z,9.78
2019-04-27T15:15:54.662Z,9.20
2019-04-27T15:18:25.055Z,9.73
2019-04-27T15:20:53.790Z,10.07
2019-04-27T15:23:22.559Z,8.80
2019-04-27T15:25:51.219Z,8.68
2019-04-27T15:28:22.722Z,9.55
2019-04-27T15:30:53.321Z,9.73
2019-04-27T15:33:39.825Z,8.90
2019-04-27T15:36:19.321Z,10.28
2019-04-27T15:38:51.315Z,9.83
2019-04-27T15:41:20.011Z,8.63
2019-04-27T15:43:48.771Z,9.75
2019-04-27T15:46:18.473Z,9.03
2019-04-27T15:48:48.716Z,8.48
2019-04-27T15:51:21.044Z,8.40
2019-04-27T15:53:50.816Z,8.78
2019-04-27T15:56:21.690Z,18.12
2019-04-27T15:58:49.891Z,8.18
2019-04-27T16:01:18.622Z,7.58
2019-04-27T16:03:48.180Z,6.97
2019-04-27T16:06:19.060Z,8.50
2019-04-27T16:08:49.198Z,7.62
2019-04-27T16:11:19.781Z,7.80
2019-04-27T16:13:50.162Z,8.53
2019-04-27T16:16:19.973Z,8.90
2019-04-27T16:18:49.177Z,7.95
2019-04-27T16:21:20.095Z,8.30
2019-04-27T16:23:48.585Z,8.10
2019-04-27T16:26:18.287Z,8.05
2019-04-27T16:28:52.864Z,7.75
2019-04-27T16:31:18.599Z,8.05
2019-04-27T16:33:49.652Z,8.30
2019-04-27T16:36:19.744Z,7.92
2019-04-27T16:38:53.383Z,8.45
2019-04-27T16:41:22.124Z,8.03
2019-04-27T16:43:50.920Z,8.03
2019-04-27T16:46:21.411Z,7.58
2019-04-27T16:48:50.124Z,8.43
2019-04-27T16:51:19.102Z,8.15
2019-04-27T16:53:47.886Z,9.35
2019-04-27T16:56:20.430Z,11.38
2019-04-27T16:58:55.919Z,8.45
2019-04-27T17:01:25.927Z,8.43
2019-04-27T17:03:54.664Z,8.13
2019-04-27T17:06:23.431Z,8.60
2019-04-27T17:08:52.257Z,9.78
2019-04-27T17:11:21.084Z,10.13
2019-04-27T17:13:52.108Z,10.25
2019-04-27T17:16:31.209Z,8.80
2019-04-27T17:19:04.874Z,8.35
2019-04-27T17:21:33.278Z,9.48
2019-04-27T17:24:02.893Z,10.45
2019-04-27T17:26:31.519Z,9.93
2019-04-27T17:29:02.671Z,9.55
2019-04-27T17:31:32.922Z,10.65
2019-04-27T17:34:02.526Z,9.50
2019-04-27T17:36:31.275Z,10.43
2019-04-27T17:39:01.579Z,10.60
2019-04-27T17:41:30.398Z,10.93
2019-04-27T17:43:59.260Z,11.33
2019-04-27T17:46:28.262Z,9.03
2019-04-27T17:48:58.581Z,10.28
2019-04-27T17:51:28.580Z,10.15
2019-04-27T17:53:58.587Z,11.22
2019-04-27T17:56:35.375Z,11.95
2019-04-27T17:58:58.607Z,11.33
2019-04-27T18:01:30.170Z,12.58
2019-04-27T18:04:00.023Z,11.00
2019-04-27T18:06:29.761Z,12.50
2019-04-27T18:09:00.739Z,11.80
2019-04-27T18:11:32.903Z,13.43
2019-04-27T18:14:00.658Z,12.93
2019-04-27T18:16:33.910Z,12.20
2019-04-27T18:19:11.494Z,14.25
2019-04-27T18:21:40.063Z,11.15
2019-04-27T18:24:10.379Z,14.90
2019-04-27T18:26:48.840Z,14.40
2019-04-27T18:29:11.099Z,12.80
2019-04-27T18:31:39.852Z,16.67
2019-04-27T18:34:14.852Z,13.35
2019-04-27T18:36:43.991Z,12.47
2019-04-27T18:39:10.429Z,11.43
2019-04-27T18:41:44.407Z,12.95
2019-04-27T18:44:11.243Z,13.50
2019-04-27T18:46:40.100Z,14.75
2019-04-27T18:49:22.665Z,11.85
2019-04-27T18:52:03.725Z,13.43
2019-04-27T18:54:28.823Z,13.70
2019-04-27T18:57:02.874Z,19.90
2019-04-27T18:59:28.809Z,13.75
2019-04-27T19:01:58.036Z,14.25
2019-04-27T19:04:28.149Z,13.93
2019-04-27T19:06:59.842Z,14.30
2019-04-27T19:09:27.264Z,13.43
2019-04-27T19:11:56.745Z,13.55
2019-04-27T19:14:25.747Z,14.63
2019-04-27T19:16:54.819Z,13.80
2019-04-27T19:19:23.546Z,13.53
2019-04-27T19:21:52.251Z,14.35
2019-04-27T19:24:20.869Z,13.85
2019-04-27T19:26:53.924Z,14.68
2019-04-27T19:29:30.063Z,15.80
2019-04-27T19:32:00.374Z,15.50
2019-04-27T19:34:29.271Z,15.13
2019-04-27T19:36:59.234Z,15.95
2019-04-27T19:39:28.670Z,15.00
2019-04-27T19:42:01.425Z,15.88
2019-04-27T19:44:29.236Z,15.45
2019-04-27T19:47:00.159Z,18.60
2019-04-27T19:49:31.442Z,18.45
2019-04-27T19:51:59.404Z,18.48
2019-04-27T19:54:30.073Z,18.02
2019-04-27T19:56:59.562Z,19.75
2019-04-27T19:59:32.497Z,17.67
2019-04-27T20:02:02.903Z,15.72
2019-04-27T20:04:36.198Z,15.08
2019-04-27T20:07:05.072Z,14.70
2019-04-27T20:09:35.509Z,14.00
2019-04-27T20:12:05.278Z,13.35
2019-04-27T20:14:52.973Z,14.15
2019-04-27T20:17:22.372Z,13.25
2019-04-27T20:19:51.670Z,15.13
2019-04-27T20:22:21.228Z,14.13
2019-04-27T20:24:51.398Z,13.55
2019-04-27T20:27:21.183Z,14.80
2019-04-27T20:29:50.387Z,13.60
2019-04-27T20:32:19.107Z,13.90
2019-04-27T20:34:47.827Z,12.93
2019-04-27T20:37:16.451Z,14.20
2019-04-27T20:39:45.156Z,14.58
2019-04-27T20:42:13.877Z,13.13
2019-04-27T20:44:42.520Z,12.25
2019-04-27T20:47:11.334Z,12.28
2019-04-27T20:49:39.927Z,11.45
2019-04-27T20:52:10.934Z,12.55
2019-04-27T20:54:41.350Z,11.00
2019-04-27T20:57:11.504Z,11.22
2019-04-27T20:59:40.319Z,11.70
2019-04-27T21:02:27.148Z,10.68
2019-04-27T21:04:57.369Z,11.70
2019-04-27T21:07:42.939Z,11.78
2019-04-27T21:10:12.062Z,11.88
2019-04-27T21:12:41.566Z,11.33
2019-04-27T21:15:12.927Z,11.48
2019-04-27T21:17:42.512Z,10.40
2019-04-27T21:20:13.143Z,10.45
2019-04-27T21:22:41.776Z,11.28
2019-04-27T21:25:11.883Z,11.10
2019-04-27T21:27:41.197Z,10.68
2019-04-27T21:30:11.393Z,10.05
2019-04-27T21:32:40.232Z,10.43
2019-04-27T21:35:10.878Z,9.43
2019-04-27T21:37:40.914Z,10.08
2019-04-27T21:40:15.157Z,10.25
2019-04-27T21:42:43.846Z,9.63
2019-04-27T21:45:12.645Z,9.40
2019-04-27T21:47:43.158Z,8.65
2019-04-27T21:50:12.370Z,9.45
2019-04-27T21:52:42.696Z,9.55
2019-04-27T21:55:13.034Z,8.80
2019-04-27T21:57:41.697Z,8.68
2019-04-27T22:00:21.135Z,8.58
2019-04-27T22:02:51.211Z,8.05
2019-04-27T22:05:21.050Z,8.40
2019-04-27T22:07:49.760Z,8.38
2019-04-27T22:10:18.422Z,8.68
2019-04-27T22:12:47.136Z,8.68
2019-04-27T22:15:15.724Z,9.18
2019-04-27T22:17:44.309Z,8.68
2019-04-27T22:20:13.120Z,8.25
2019-04-27T22:22:43.825Z,9.08
2019-04-27T22:25:12.449Z,9.08
2019-04-27T22:27:41.452Z,11.33
2019-04-27T22:30:11.012Z,8.28
2019-04-27T22:32:41.382Z,8.73
2019-04-27T22:35:10.113Z,9.15
2019-04-27T22:37:38.742Z,8.78
2019-04-27T22:40:25.638Z,9.28
2019-04-27T22:42:58.687Z,8.88
2019-04-27T22:45:28.994Z,9.50
2019-04-27T22:47:57.671Z,8.55
2019-04-27T22:50:26.373Z,9.43
2019-04-27T22:52:54.950Z,9.40
2019-04-27T22:55:23.615Z,9.30
2019-04-27T22:57:53.979Z,9.30
2019-04-27T23:00:42.639Z,9.05
2019-04-27T23:03:18.492Z,9.78
2019-04-27T23:05:47.107Z,9.53
2019-04-27T23:08:15.759Z,8.85
2019-04-27T23:10:44.460Z,9.75
2019-04-27T23:13:13.344Z,8.85
2019-04-27T23:15:43.679Z,8.68
2019-04-27T23:18:12.280Z,9.08
2019-04-27T23:20:42.475Z,9.20
2019-04-27T23:23:11.454Z,8.23
2019-04-27T23:25:41.055Z,9.18
2019-04-27T23:28:10.495Z,9.18
2019-04-27T23:30:49.757Z,8.13
2019-04-27T23:33:18.453Z,9.28
2019-04-27T23:35:47.091Z,9.60
2019-04-27T23:38:18.029Z,10.00
2019-04-27T23:40:46.123Z,9.38
2019-04-27T23:43:14.702Z,9.18
2019-04-27T23:45:43.291Z,8.88
2019-04-27T23:48:12.373Z,9.43
2019-04-27T23:50:43.758Z,9.50
2019-04-27T23:53:21.722Z,9.28
2019-04-27T23:55:50.098Z,10.05
2019-04-27T23:58:18.803Z,9.40
